createdAt,value
2022-09-29T00:00:01.895Z,4.50
2022-09-29T00:01:11.045Z,4.85
2022-09-29T00:02:13.710Z,4.75
2022-09-29T00:03:16.158Z,5.32
2022-09-29T00:04:18.736Z,4.35
2022-09-29T00:05:21.914Z,5.53
2022-09-29T00:06:24.332Z,4.47
2022-09-29T00:07:26.903Z,4.68
2022-09-29T00:08:31.303Z,4.78
2022-09-29T00:10:41.304Z,4.63
2022-09-29T00:11:44.066Z,4.95
2022-09-29T00:12:47.316Z,4.40
2022-09-29T00:13:52.361Z,4.88
2022-09-29T00:14:54.722Z,4.88
2022-09-29T00:15:58.704Z,5.55
2022-09-29T00:17:01.078Z,5.45
2022-09-29T00:18:13.676Z,5.53
2022-09-29T00:19:17.016Z,5.18
2022-09-29T00:20:19.474Z,5.32
2022-09-29T00:21:22.194Z,6.45
2022-09-29T00:22:25.006Z,5.22
2022-09-29T00:23:28.431Z,5.70
2022-09-29T00:24:31.486Z,6.25
2022-09-29T00:25:34.489Z,5.18
2022-09-29T00:26:42.263Z,6.00
2022-09-29T00:27:45.362Z,5.15
2022-09-29T00:28:56.613Z,4.93
2022-09-29T00:29:58.921Z,5.22
2022-09-29T00:31:02.447Z,5.10
2022-09-29T00:32:04.959Z,5.10
2022-09-29T00:33:07.287Z,5.80
2022-09-29T00:34:09.822Z,5.53
2022-09-29T00:35:12.369Z,5.53
2022-09-29T00:36:17.238Z,5.15
2022-09-29T00:37:19.729Z,5.03
2022-09-29T00:38:22.038Z,4.70
2022-09-29T00:39:25.504Z,5.32
2022-09-29T00:40:28.042Z,5.40
2022-09-29T00:41:34.204Z,6.03
2022-09-29T00:42:36.627Z,4.70
2022-09-29T00:44:03.434Z,5.25
2022-09-29T00:45:19.706Z,4.95
2022-09-29T00:46:28.154Z,5.22
2022-09-29T00:47:32.182Z,5.30
2022-09-29T00:49:42.482Z,5.47
2022-09-29T00:50:50.626Z,4.90
2022-09-29T00:52:04.296Z,5.55
2022-09-29T00:53:13.283Z,5.88
2022-09-29T00:54:18.030Z,5.43
2022-09-29T00:55:28.593Z,5.32
2022-09-29T00:56:31.889Z,6.15
2022-09-29T00:57:44.257Z,5.03
2022-09-29T00:58:55.051Z,5.60
2022-09-29T01:00:08.471Z,5.50
2022-09-29T01:01:13.538Z,5.88
2022-09-29T01:02:18.085Z,5.57
2022-09-29T01:03:22.959Z,5.53
2022-09-29T01:04:25.492Z,6.30
2022-09-29T01:05:38.163Z,5.18
2022-09-29T01:06:46.583Z,6.55
2022-09-29T01:07:49.951Z,8.27
2022-09-29T01:08:59.741Z,7.47
2022-09-29T01:10:07.312Z,7.82
2022-09-29T01:11:12.878Z,7.85
2022-09-29T01:12:16.172Z,7.72
2022-09-29T01:13:19.683Z,6.82
2022-09-29T01:14:22.297Z,5.90
2022-09-29T01:15:24.946Z,4.80
2022-09-29T01:16:27.923Z,6.18
2022-09-29T01:17:30.561Z,4.97
2022-09-29T01:18:33.577Z,4.90
2022-09-29T01:20:00.739Z,4.80
2022-09-29T01:21:05.808Z,5.05
2022-09-29T01:22:38.914Z,4.93
2022-09-29T01:23:59.514Z,5.07
2022-09-29T01:25:37.166Z,5.55
2022-09-29T01:26:57.280Z,5.53
2022-09-29T01:28:45.077Z,5.18
2022-09-29T01:30:09.335Z,4.53
2022-09-29T01:31:15.384Z,4.93
2022-09-29T01:32:55.283Z,4.88
2022-09-29T01:34:02.453Z,5.00
2022-09-29T01:35:13.521Z,5.07
2022-09-29T01:36:32.829Z,4.72
2022-09-29T01:38:09.401Z,4.78
2022-09-29T01:39:30.667Z,5.15
2022-09-29T01:41:05.715Z,4.82
2022-09-29T01:42:14.337Z,5.40
2022-09-29T01:43:33.298Z,5.05
2022-09-29T01:44:57.142Z,4.78
2022-09-29T01:46:44.487Z,4.88
2022-09-29T01:47:55.112Z,5.45
2022-09-29T01:48:59.561Z,5.13
2022-09-29T01:51:15.139Z,4.50
2022-09-29T01:52:24.247Z,4.70
2022-09-29T01:53:40.549Z,4.75
2022-09-29T01:54:58.652Z,4.80
2022-09-29T01:56:06.491Z,4.20
2022-09-29T01:57:39.588Z,5.05
2022-09-29T01:58:52.879Z,4.60
2022-09-29T02:00:05.804Z,4.95
2022-09-29T02:01:17.237Z,4.50
2022-09-29T02:02:30.191Z,5.38
2022-09-29T02:03:37.488Z,4.80
2022-09-29T02:04:47.262Z,4.50
2022-09-29T02:05:54.231Z,4.88
2022-09-29T02:07:04.429Z,4.75
2022-09-29T02:08:15.322Z,5.30
2022-09-29T02:09:26.481Z,5.28
2022-09-29T02:10:37.965Z,5.38
2022-09-29T02:11:42.837Z,4.88
2022-09-29T02:12:47.489Z,5.15
2022-09-29T02:13:52.213Z,4.93
2022-09-29T02:14:56.066Z,4.95
2022-09-29T02:16:00.001Z,5.50
2022-09-29T02:17:13.117Z,5.13
2022-09-29T02:18:22.297Z,4.63
2022-09-29T02:19:31.495Z,5.95
2022-09-29T02:20:34.051Z,4.93
2022-09-29T02:21:37.460Z,4.82
2022-09-29T02:22:41.304Z,5.47
2022-09-29T02:23:43.816Z,4.15
2022-09-29T02:24:49.473Z,5.05
2022-09-29T02:25:53.025Z,4.72
2022-09-29T02:26:56.438Z,5.05
2022-09-29T02:27:58.975Z,5.13
2022-09-29T02:29:06.620Z,4.70
2022-09-29T02:30:09.880Z,4.63
2022-09-29T02:31:13.112Z,4.90
2022-09-29T02:32:15.605Z,5.25
2022-09-29T02:33:23.491Z,4.18
2022-09-29T02:34:26.005Z,4.57
2022-09-29T02:36:09.487Z,4.60
2022-09-29T02:37:33.537Z,4.22
2022-09-29T02:38:54.904Z,4.50
2022-09-29T02:40:19.054Z,4.35
2022-09-29T02:41:54.136Z,5.22
2022-09-29T02:43:10.768Z,4.38
2022-09-29T02:44:51.608Z,4.65
2022-09-29T02:46:03.469Z,4.22
2022-09-29T02:47:28.545Z,4.47
2022-09-29T02:48:36.918Z,4.40
2022-09-29T02:49:48.270Z,5.95
2022-09-29T02:50:56.247Z,4.45
2022-09-29T02:52:14.550Z,4.70
2022-09-29T02:53:44.723Z,4.15
2022-09-29T02:55:01.115Z,4.47
2022-09-29T02:56:26.419Z,4.70
2022-09-29T02:57:52.107Z,4.28
2022-09-29T02:59:00.905Z,4.60
2022-09-29T03:00:13.322Z,4.43
2022-09-29T03:01:16.856Z,4.90
2022-09-29T03:02:27.732Z,4.53
2022-09-29T03:03:30.283Z,4.72
2022-09-29T03:04:32.690Z,5.05
2022-09-29T03:05:35.170Z,4.78
2022-09-29T03:06:37.896Z,5.47
2022-09-29T03:07:41.371Z,5.35
2022-09-29T03:08:44.156Z,5.28
2022-09-29T03:09:47.454Z,5.85
2022-09-29T03:10:49.981Z,6.13
2022-09-29T03:11:52.670Z,5.95
2022-09-29T03:12:58.671Z,5.18
2022-09-29T03:14:01.452Z,4.82
2022-09-29T03:15:04.836Z,4.88
2022-09-29T03:16:08.454Z,4.82
2022-09-29T03:17:11.065Z,5.40
2022-09-29T03:18:13.482Z,5.03
2022-09-29T03:19:16.472Z,5.13
2022-09-29T03:20:18.990Z,5.30
2022-09-29T03:21:21.602Z,5.05
2022-09-29T03:22:24.510Z,5.72
2022-09-29T03:23:27.173Z,5.18
2022-09-29T03:24:29.992Z,5.38
2022-09-29T03:25:33.842Z,6.25
2022-09-29T03:26:38.026Z,4.68
2022-09-29T03:27:40.797Z,4.75
2022-09-29T03:28:43.770Z,4.95
2022-09-29T03:29:46.388Z,4.80
2022-09-29T03:30:48.819Z,5.43
2022-09-29T03:31:51.313Z,5.88
2022-09-29T03:32:54.124Z,4.78
2022-09-29T03:33:56.528Z,5.47
2022-09-29T03:34:58.952Z,5.80
2022-09-29T03:36:01.809Z,5.07
2022-09-29T03:37:04.768Z,5.18
2022-09-29T03:38:07.113Z,5.32
2022-09-29T03:39:09.836Z,5.18
2022-09-29T03:40:12.447Z,5.53
2022-09-29T03:41:15.971Z,5.80
2022-09-29T03:42:18.404Z,6.25
2022-09-29T03:43:20.797Z,4.90
2022-09-29T03:44:23.340Z,4.90
2022-09-29T03:45:25.849Z,5.70
2022-09-29T03:46:28.477Z,5.50
2022-09-29T03:47:31.015Z,5.22
2022-09-29T03:48:35.467Z,5.07
2022-09-29T03:49:37.957Z,5.68
2022-09-29T03:50:40.394Z,5.32
2022-09-29T03:51:43.402Z,5.60
2022-09-29T03:52:45.889Z,4.68
2022-09-29T03:53:48.306Z,5.00
2022-09-29T03:54:50.850Z,5.50
2022-09-29T03:55:53.371Z,5.88
2022-09-29T03:56:56.039Z,5.45
2022-09-29T03:57:58.526Z,5.45
2022-09-29T03:59:01.226Z,4.97
2022-09-29T04:00:04.849Z,5.60
2022-09-29T04:01:11.020Z,4.93
2022-09-29T04:02:14.519Z,6.75
2022-09-29T04:03:17.315Z,6.13
2022-09-29T04:04:19.977Z,6.45
2022-09-29T04:05:22.682Z,5.60
2022-09-29T04:06:25.285Z,5.63
2022-09-29T04:07:27.613Z,5.85
2022-09-29T04:08:30.124Z,5.68
2022-09-29T04:09:32.591Z,6.03
2022-09-29T04:10:36.468Z,5.60
2022-09-29T04:11:39.150Z,5.60
2022-09-29T04:12:41.548Z,5.60
2022-09-29T04:13:44.114Z,6.03
2022-09-29T04:14:46.535Z,5.97
2022-09-29T04:15:49.989Z,6.05
2022-09-29T04:16:52.469Z,6.47
2022-09-29T04:17:55.064Z,9.38
2022-09-29T04:18:57.690Z,12.30
2022-09-29T04:20:00.267Z,12.68
2022-09-29T04:21:09.704Z,13.35
2022-09-29T04:22:12.302Z,10.93
2022-09-29T04:23:14.881Z,11.32
2022-09-29T04:24:17.268Z,9.48
2022-09-29T04:25:20.103Z,10.30
2022-09-29T04:26:22.653Z,8.57
2022-09-29T04:27:26.083Z,9.27
2022-09-29T04:28:32.178Z,7.75
2022-09-29T04:29:35.316Z,6.95
2022-09-29T04:30:38.100Z,7.15
2022-09-29T04:31:40.601Z,6.07
2022-09-29T04:32:43.592Z,6.55
2022-09-29T04:33:46.301Z,6.13
2022-09-29T04:34:48.799Z,7.38
2022-09-29T04:35:51.646Z,7.45
2022-09-29T04:36:54.298Z,7.28
2022-09-29T04:37:57.779Z,6.68
2022-09-29T04:39:00.158Z,6.68
2022-09-29T04:40:03.671Z,7.07
2022-09-29T04:42:09.257Z,7.47
2022-09-29T04:43:11.921Z,7.35
2022-09-29T04:44:14.501Z,7.13
2022-09-29T04:45:17.312Z,7.60
2022-09-29T04:46:19.879Z,8.23
2022-09-29T04:47:22.453Z,7.93
2022-09-29T04:48:25.582Z,8.55
2022-09-29T04:49:28.080Z,9.13
2022-09-29T04:50:30.760Z,10.55
2022-09-29T04:51:33.385Z,10.95
2022-09-29T04:52:36.643Z,10.80
2022-09-29T04:53:39.049Z,10.73
2022-09-29T04:54:44.483Z,10.38
2022-09-29T04:55:46.767Z,10.65
2022-09-29T04:56:51.097Z,9.23
2022-09-29T04:57:56.430Z,9.52
2022-09-29T04:58:59.825Z,9.13
2022-09-29T05:00:02.421Z,7.80
2022-09-29T05:01:10.528Z,7.85
2022-09-29T05:02:13.079Z,6.78
2022-09-29T05:03:17.561Z,6.53
2022-09-29T05:04:26.999Z,7.22
2022-09-29T05:05:29.577Z,6.68
2022-09-29T05:06:32.337Z,7.22
2022-09-29T05:07:36.652Z,8.40
2022-09-29T05:09:41.705Z,9.45
2022-09-29T05:10:48.089Z,7.43
2022-09-29T05:11:50.523Z,6.20
2022-09-29T05:12:52.955Z,5.57
2022-09-29T05:13:55.488Z,5.53
2022-09-29T05:14:57.884Z,5.88
2022-09-29T05:16:00.526Z,5.10
2022-09-29T05:17:02.914Z,5.25
2022-09-29T05:18:05.339Z,5.45
2022-09-29T05:19:07.976Z,6.43
2022-09-29T05:20:11.395Z,5.40
2022-09-29T05:21:27.731Z,7.03
2022-09-29T05:22:32.489Z,7.85
2022-09-29T05:24:38.036Z,7.10
2022-09-29T05:25:40.733Z,8.30
2022-09-29T05:26:43.240Z,6.82
2022-09-29T05:27:45.594Z,6.38
2022-09-29T05:28:48.517Z,7.03
2022-09-29T05:29:51.035Z,6.85
2022-09-29T05:31:01.622Z,7.30
2022-09-29T05:32:12.241Z,8.50
2022-09-29T05:33:14.831Z,7.25
2022-09-29T05:34:18.143Z,6.40
2022-09-29T05:35:20.920Z,5.78
2022-09-29T05:36:23.787Z,6.20
2022-09-29T05:37:26.193Z,7.47
2022-09-29T05:38:29.009Z,7.72
2022-09-29T05:39:34.763Z,11.15
2022-09-29T05:40:37.835Z,11.93
2022-09-29T05:41:40.201Z,12.07
2022-09-29T05:42:42.729Z,10.40
2022-09-29T05:43:45.053Z,9.50
2022-09-29T05:44:47.428Z,11.43
2022-09-29T05:45:50.124Z,9.70
2022-09-29T05:46:54.425Z,9.43
2022-09-29T05:47:58.042Z,9.88
2022-09-29T05:49:00.442Z,11.93
2022-09-29T05:50:11.790Z,9.35
2022-09-29T05:51:19.508Z,8.77
2022-09-29T05:52:24.900Z,8.52
2022-09-29T05:53:28.838Z,7.50
2022-09-29T05:54:31.283Z,6.45
2022-09-29T05:55:33.599Z,8.20
2022-09-29T05:56:35.997Z,6.05
2022-09-29T05:57:38.630Z,6.22
2022-09-29T05:58:42.103Z,6.97
2022-09-29T05:59:45.687Z,6.50
2022-09-29T06:01:46.065Z,5.63
2022-09-29T06:02:51.444Z,6.35
2022-09-29T06:03:54.968Z,6.10
2022-09-29T06:05:04.973Z,5.30
2022-09-29T06:06:13.073Z,5.72
2022-09-29T06:07:19.680Z,6.53
2022-09-29T06:08:23.503Z,8.95
2022-09-29T06:09:26.979Z,8.70
2022-09-29T06:10:39.360Z,8.23
2022-09-29T06:11:42.535Z,9.98
2022-09-29T06:12:57.370Z,7.65
2022-09-29T06:14:06.533Z,6.22
2022-09-29T06:16:36.901Z,5.90
2022-09-29T06:17:51.086Z,6.55
2022-09-29T06:19:09.369Z,6.60
2022-09-29T06:20:23.267Z,5.35
2022-09-29T06:21:31.522Z,5.75
2022-09-29T06:22:45.789Z,5.30
2022-09-29T06:24:07.748Z,4.85
2022-09-29T06:25:16.510Z,5.25
2022-09-29T06:26:26.189Z,5.97
2022-09-29T06:27:37.591Z,5.82
2022-09-29T06:28:39.960Z,4.97
2022-09-29T06:29:52.723Z,6.03
2022-09-29T06:31:10.165Z,7.32
2022-09-29T06:32:14.999Z,5.60
2022-09-29T06:33:20.781Z,6.00
2022-09-29T06:34:31.652Z,6.13
2022-09-29T06:35:58.887Z,7.30
2022-09-29T06:37:23.023Z,6.45
2022-09-29T06:38:31.590Z,7.22
2022-09-29T06:39:49.565Z,6.32
2022-09-29T06:40:56.022Z,6.28
2022-09-29T06:42:02.482Z,6.03
2022-09-29T06:43:14.002Z,5.88
2022-09-29T06:44:18.248Z,5.90
2022-09-29T06:45:27.746Z,6.20
2022-09-29T06:46:35.144Z,5.35
2022-09-29T06:47:43.552Z,6.20
2022-09-29T06:48:53.878Z,6.60
2022-09-29T06:50:06.479Z,7.18
2022-09-29T06:51:41.785Z,6.68
2022-09-29T06:53:04.012Z,7.00
2022-09-29T06:54:14.465Z,6.45
2022-09-29T06:55:17.022Z,5.35
2022-09-29T06:56:19.800Z,5.85
2022-09-29T06:57:30.499Z,7.35
2022-09-29T06:58:37.990Z,6.65
2022-09-29T06:59:42.979Z,6.95
2022-09-29T07:00:52.433Z,6.05
2022-09-29T07:01:54.737Z,6.90
2022-09-29T07:03:05.368Z,6.43
2022-09-29T07:04:08.540Z,5.75
2022-09-29T07:05:11.564Z,6.45
2022-09-29T07:06:20.541Z,5.68
2022-09-29T07:07:26.777Z,6.68
2022-09-29T07:08:39.337Z,5.82
2022-09-29T07:09:45.704Z,6.32
2022-09-29T07:10:48.631Z,5.57
2022-09-29T07:11:55.441Z,6.82
2022-09-29T07:13:11.753Z,6.50
2022-09-29T07:15:27.754Z,6.28
2022-09-29T07:16:35.407Z,6.57
2022-09-29T07:17:45.571Z,6.15
2022-09-29T07:18:55.803Z,7.07
2022-09-29T07:20:08.834Z,7.30
2022-09-29T07:22:16.648Z,6.40
2022-09-29T07:23:19.282Z,7.00
2022-09-29T07:24:21.714Z,6.40
2022-09-29T07:25:50.080Z,8.25
2022-09-29T07:26:47.498Z,7.90
2022-09-29T07:27:51.379Z,8.52
2022-09-29T07:30:03.583Z,9.13
2022-09-29T07:32:26.785Z,7.55
2022-09-29T07:33:38.242Z,6.32
2022-09-29T07:34:41.513Z,6.43
2022-09-29T07:35:44.074Z,6.38
2022-09-29T07:36:46.543Z,6.53
2022-09-29T07:37:55.558Z,7.20
2022-09-29T07:38:57.870Z,7.20
2022-09-29T07:40:00.665Z,8.55
2022-09-29T07:41:04.941Z,8.27
2022-09-29T07:42:09.280Z,8.25
2022-09-29T07:43:12.252Z,7.32
2022-09-29T07:44:14.689Z,8.45
2022-09-29T07:45:20.991Z,10.32
2022-09-29T07:46:23.440Z,10.73
2022-09-29T07:47:25.802Z,9.32
2022-09-29T07:48:31.938Z,9.57
2022-09-29T07:49:35.431Z,8.82
2022-09-29T07:50:40.235Z,8.75
2022-09-29T07:51:42.622Z,8.20
2022-09-29T07:52:44.962Z,7.82
2022-09-29T07:53:47.931Z,8.05
2022-09-29T07:54:50.443Z,8.35
2022-09-29T07:55:53.172Z,7.82
2022-09-29T07:56:56.382Z,7.50
2022-09-29T07:57:58.813Z,6.78
2022-09-29T07:59:03.323Z,7.22
2022-09-29T08:00:06.216Z,6.72
2022-09-29T08:01:16.252Z,8.15
2022-09-29T08:02:19.136Z,7.32
2022-09-29T08:03:21.711Z,8.13
2022-09-29T08:04:24.923Z,7.57
2022-09-29T08:05:30.600Z,7.43
2022-09-29T08:06:33.478Z,6.43
2022-09-29T08:07:36.766Z,6.32
2022-09-29T08:08:40.227Z,6.72
2022-09-29T08:10:52.732Z,6.30
2022-09-29T08:12:06.369Z,5.43
2022-09-29T08:13:09.906Z,6.05
2022-09-29T08:14:12.487Z,6.10
2022-09-29T08:16:01.151Z,6.60
2022-09-29T08:17:04.609Z,5.60
2022-09-29T08:18:07.134Z,5.30
2022-09-29T08:19:09.714Z,6.80
2022-09-29T08:20:12.194Z,6.97
2022-09-29T08:21:15.905Z,6.65
2022-09-29T08:22:18.886Z,6.25
2022-09-29T08:23:23.368Z,5.38
2022-09-29T08:24:25.697Z,5.78
2022-09-29T08:25:27.921Z,6.18
2022-09-29T08:26:41.860Z,6.55
2022-09-29T08:27:54.950Z,7.72
2022-09-29T08:29:06.925Z,6.95
2022-09-29T08:30:11.868Z,8.35
2022-09-29T08:31:20.565Z,7.72
2022-09-29T08:32:23.036Z,8.63
2022-09-29T08:33:25.363Z,7.22
2022-09-29T08:34:27.714Z,7.97
2022-09-29T08:35:30.298Z,8.52
2022-09-29T08:36:36.114Z,11.05
2022-09-29T08:37:39.820Z,10.35
2022-09-29T08:38:49.431Z,11.68
2022-09-29T08:39:51.881Z,8.55
2022-09-29T08:41:02.631Z,8.32
2022-09-29T08:42:17.162Z,9.63
2022-09-29T08:43:33.755Z,7.88
2022-09-29T08:44:43.421Z,9.40
2022-09-29T08:46:00.856Z,8.38
2022-09-29T08:47:41.806Z,7.90
2022-09-29T08:48:57.287Z,6.78
2022-09-29T08:50:13.476Z,7.57
2022-09-29T08:51:39.324Z,6.97
2022-09-29T08:52:52.776Z,8.15
2022-09-29T08:54:03.040Z,7.30
2022-09-29T08:55:21.066Z,7.03
2022-09-29T08:56:26.386Z,7.70
2022-09-29T08:57:29.054Z,8.10
2022-09-29T08:58:32.740Z,7.50
2022-09-29T09:00:52.854Z,6.60
2022-09-29T09:02:26.204Z,6.60
2022-09-29T09:04:00.196Z,6.38
2022-09-29T09:05:11.569Z,7.32
2022-09-29T09:06:32.981Z,7.65
2022-09-29T09:07:52.024Z,7.72
2022-09-29T09:09:22.372Z,7.30
2022-09-29T09:10:47.613Z,6.07
2022-09-29T09:12:02.901Z,5.63
2022-09-29T09:13:11.121Z,6.30
2022-09-29T09:14:45.507Z,6.28
2022-09-29T09:16:25.391Z,7.20
2022-09-29T09:17:33.632Z,7.15
2022-09-29T09:19:05.577Z,6.45
2022-09-29T09:20:23.252Z,5.70
2022-09-29T09:21:31.569Z,6.30
2022-09-29T09:22:51.429Z,6.43
2022-09-29T09:24:03.267Z,6.10
2022-09-29T09:25:29.411Z,5.75
2022-09-29T09:26:46.271Z,5.28
2022-09-29T09:28:01.278Z,5.63
2022-09-29T09:29:11.730Z,6.13
2022-09-29T09:30:18.270Z,5.70
2022-09-29T09:31:25.375Z,6.60
2022-09-29T09:32:32.554Z,5.57
2022-09-29T09:34:06.120Z,5.90
2022-09-29T09:35:40.239Z,6.47
2022-09-29T09:37:02.977Z,9.85
2022-09-29T09:38:50.456Z,8.10
2022-09-29T09:40:19.252Z,7.70
2022-09-29T09:41:24.388Z,6.70
2022-09-29T09:42:31.736Z,6.85
2022-09-29T09:43:46.519Z,7.07
2022-09-29T09:44:54.583Z,6.20
2022-09-29T09:46:03.551Z,7.75
2022-09-29T09:47:43.348Z,7.38
2022-09-29T09:48:57.652Z,7.72
2022-09-29T09:50:14.843Z,8.85
2022-09-29T09:52:04.392Z,9.80
2022-09-29T09:53:15.487Z,11.48
2022-09-29T09:54:25.958Z,10.68
2022-09-29T09:55:28.472Z,10.77
2022-09-29T09:57:02.158Z,9.38
2022-09-29T09:58:25.615Z,6.57
2022-09-29T09:59:51.101Z,6.38
2022-09-29T10:01:06.667Z,8.23
2022-09-29T10:02:21.348Z,7.80
2022-09-29T10:03:23.818Z,8.13
2022-09-29T10:04:26.238Z,6.90
2022-09-29T10:05:58.486Z,8.07
2022-09-29T10:07:01.075Z,8.38
2022-09-29T10:08:04.520Z,7.53
2022-09-29T10:09:10.095Z,8.18
2022-09-29T10:10:18.274Z,7.38
2022-09-29T10:11:26.247Z,6.95
2022-09-29T10:12:28.502Z,7.50
2022-09-29T10:13:50.757Z,7.32
2022-09-29T10:14:59.664Z,6.85
2022-09-29T10:16:20.955Z,7.72
2022-09-29T10:17:27.548Z,9.55
2022-09-29T10:18:45.528Z,10.10
2022-09-29T10:20:01.475Z,9.45
2022-09-29T10:21:04.009Z,11.43
2022-09-29T10:22:14.040Z,14.65
2022-09-29T10:23:21.401Z,13.48
2022-09-29T10:24:27.216Z,11.23
2022-09-29T10:25:30.204Z,9.27
2022-09-29T10:26:36.418Z,9.85
2022-09-29T10:27:45.724Z,9.90
2022-09-29T10:28:55.790Z,10.38
2022-09-29T10:30:02.109Z,9.48
2022-09-29T10:31:17.059Z,9.70
2022-09-29T10:32:36.960Z,7.13
2022-09-29T10:33:49.217Z,7.75
2022-09-29T10:35:06.120Z,8.75
2022-09-29T10:36:11.267Z,10.13
2022-09-29T10:37:29.326Z,8.65
2022-09-29T10:38:32.462Z,10.35
2022-09-29T10:39:43.993Z,11.95
2022-09-29T10:41:08.091Z,12.73
2022-09-29T10:42:31.539Z,13.70
2022-09-29T10:43:44.176Z,11.07
2022-09-29T10:44:52.679Z,14.02
2022-09-29T10:45:58.803Z,20.83
2022-09-29T10:47:08.055Z,20.17
2022-09-29T10:48:15.447Z,31.95
2022-09-29T10:49:20.828Z,18.92
2022-09-29T10:50:34.982Z,15.70
2022-09-29T10:51:52.874Z,14.00
2022-09-29T10:52:59.664Z,18.35
2022-09-29T10:54:09.028Z,21.17
2022-09-29T10:55:32.852Z,40.60
2022-09-29T10:56:35.498Z,31.33
2022-09-29T10:57:40.199Z,21.88
2022-09-29T10:58:57.643Z,21.25
2022-09-29T11:00:05.207Z,14.73
2022-09-29T11:01:12.802Z,17.95
2022-09-29T11:02:23.031Z,16.58
2022-09-29T11:04:34.006Z,14.27
2022-09-29T11:05:37.942Z,14.45
2022-09-29T11:07:50.376Z,12.40
2022-09-29T11:08:56.409Z,12.27
2022-09-29T11:09:59.361Z,13.32
2022-09-29T11:11:20.912Z,14.05
2022-09-29T11:12:35.575Z,13.10
2022-09-29T11:13:40.508Z,10.93
2022-09-29T11:14:43.381Z,11.32
2022-09-29T11:15:46.111Z,11.93
2022-09-29T11:16:55.763Z,11.73
2022-09-29T11:17:58.151Z,18.33
2022-09-29T11:19:15.579Z,17.08
2022-09-29T11:20:18.519Z,16.73
2022-09-29T11:21:21.487Z,13.45
2022-09-29T11:22:26.701Z,12.05
2022-09-29T11:23:49.418Z,11.65
2022-09-29T11:25:08.556Z,16.45
2022-09-29T11:26:18.735Z,12.90
2022-09-29T11:27:40.018Z,13.07
2022-09-29T11:28:42.606Z,14.23
2022-09-29T11:30:02.089Z,12.13
2022-09-29T11:31:26.421Z,12.52
2022-09-29T11:32:40.338Z,12.30
2022-09-29T11:33:57.305Z,14.32
2022-09-29T11:35:17.687Z,11.75
2022-09-29T11:36:34.466Z,10.88
2022-09-29T11:37:47.342Z,9.95
2022-09-29T11:39:11.302Z,9.07
2022-09-29T11:40:39.798Z,8.35
2022-09-29T11:42:18.207Z,9.30
2022-09-29T11:43:45.813Z,9.85
2022-09-29T11:45:01.573Z,8.60
2022-09-29T11:46:15.495Z,9.00
2022-09-29T11:47:46.790Z,8.20
2022-09-29T11:49:18.822Z,8.18
2022-09-29T11:50:39.360Z,9.40
2022-09-29T11:51:53.508Z,9.43
2022-09-29T11:53:10.511Z,9.80
2022-09-29T11:54:35.287Z,9.68
2022-09-29T11:56:11.771Z,9.45
2022-09-29T11:57:43.508Z,9.00
2022-09-29T11:59:04.408Z,8.93
2022-09-29T12:00:18.839Z,8.75
2022-09-29T12:02:02.232Z,9.18
2022-09-29T12:03:30.976Z,13.25
2022-09-29T12:05:00.551Z,9.73
2022-09-29T12:06:18.575Z,9.90
2022-09-29T12:07:31.533Z,11.40
2022-09-29T12:08:57.231Z,12.73
2022-09-29T12:10:13.002Z,12.02
2022-09-29T12:11:50.971Z,11.20
2022-09-29T12:13:21.254Z,11.30
2022-09-29T12:14:39.131Z,10.18
2022-09-29T12:15:57.488Z,10.65
2022-09-29T12:17:09.345Z,11.05
2022-09-29T12:18:19.460Z,9.75
2022-09-29T12:20:31.255Z,9.65
2022-09-29T12:21:38.254Z,9.95
2022-09-29T12:22:44.956Z,8.68
2022-09-29T12:23:48.865Z,8.23
2022-09-29T12:24:55.596Z,8.50
2022-09-29T12:26:19.567Z,8.27
2022-09-29T12:27:35.102Z,9.00
2022-09-29T12:28:51.393Z,7.88
2022-09-29T12:30:03.331Z,9.20
2022-09-29T12:31:23.954Z,8.77
2022-09-29T12:34:13.802Z,9.23
2022-09-29T12:35:23.478Z,8.93
2022-09-29T12:36:46.328Z,9.18
2022-09-29T12:38:13.614Z,9.52
2022-09-29T12:39:59.375Z,9.63
2022-09-29T12:41:23.961Z,10.40
2022-09-29T12:42:34.540Z,10.20
2022-09-29T12:43:51.210Z,9.25
2022-09-29T12:45:08.067Z,9.50
2022-09-29T12:46:42.610Z,10.07
2022-09-29T12:47:53.784Z,9.57
2022-09-29T12:49:09.069Z,9.32
2022-09-29T12:50:32.454Z,9.40
2022-09-29T12:51:44.696Z,8.55
2022-09-29T12:52:55.474Z,9.52
2022-09-29T12:54:12.537Z,9.80
2022-09-29T12:55:30.766Z,9.07
2022-09-29T12:56:40.320Z,9.25
2022-09-29T12:57:46.475Z,8.95
2022-09-29T12:59:04.717Z,9.05
2022-09-29T13:00:13.964Z,9.75
2022-09-29T13:01:30.398Z,9.05
2022-09-29T13:02:57.999Z,8.85
2022-09-29T13:04:31.180Z,8.45
2022-09-29T13:06:06.063Z,7.93
2022-09-29T13:07:16.943Z,8.32
2022-09-29T13:08:28.680Z,8.60
2022-09-29T13:10:04.479Z,8.15
2022-09-29T13:12:01.086Z,8.60
2022-09-29T13:13:44.572Z,7.88
2022-09-29T13:15:05.131Z,8.30
2022-09-29T13:16:25.312Z,7.95
2022-09-29T13:17:28.463Z,7.25
2022-09-29T13:19:00.291Z,8.30
2022-09-29T13:20:35.741Z,8.73
2022-09-29T13:24:43.397Z,8.63
2022-09-29T13:26:12.314Z,8.25
2022-09-29T13:27:47.927Z,6.85
2022-09-29T13:28:55.232Z,6.50
2022-09-29T13:30:28.612Z,6.30
2022-09-29T13:31:43.326Z,7.32
2022-09-29T13:33:31.377Z,7.05
2022-09-29T13:34:40.174Z,7.28
2022-09-29T13:35:48.545Z,6.30
2022-09-29T13:36:53.605Z,6.22
2022-09-29T13:38:07.698Z,7.57
2022-09-29T13:39:28.203Z,6.63
2022-09-29T13:40:31.946Z,7.63
2022-09-29T13:41:39.753Z,6.95
2022-09-29T13:42:48.303Z,7.70
2022-09-29T13:44:00.986Z,7.85
2022-09-29T13:45:21.467Z,6.88
2022-09-29T13:46:37.145Z,7.43
2022-09-29T13:47:53.806Z,7.38
2022-09-29T13:49:15.481Z,8.20
2022-09-29T13:50:44.728Z,7.43
2022-09-29T13:51:53.191Z,7.40
2022-09-29T13:53:28.485Z,6.68
2022-09-29T13:55:52.531Z,7.13
2022-09-29T13:57:13.488Z,7.32
2022-09-29T13:58:28.155Z,8.38
2022-09-29T13:59:31.585Z,7.80
2022-09-29T14:00:45.893Z,9.25
2022-09-29T14:01:48.487Z,9.93
2022-09-29T14:03:03.364Z,8.93
2022-09-29T14:04:36.814Z,8.15
2022-09-29T14:05:45.807Z,7.97
2022-09-29T14:06:48.515Z,8.70
2022-09-29T14:07:57.574Z,9.02
2022-09-29T14:09:20.591Z,9.10
2022-09-29T14:10:44.006Z,8.77
2022-09-29T14:11:51.912Z,9.15
2022-09-29T14:13:01.866Z,8.77
2022-09-29T14:14:08.036Z,8.77
2022-09-29T14:15:17.925Z,9.05
2022-09-29T14:16:47.603Z,9.70
2022-09-29T14:17:58.173Z,10.60
2022-09-29T14:19:03.376Z,9.90
2022-09-29T14:20:08.738Z,9.32
2022-09-29T14:21:14.105Z,11.23
2022-09-29T14:22:59.507Z,10.00
2022-09-29T14:24:02.088Z,10.15
2022-09-29T14:25:15.322Z,10.63
2022-09-29T14:26:43.449Z,9.98
2022-09-29T14:27:58.538Z,9.65
2022-09-29T14:29:03.495Z,10.60
2022-09-29T14:30:37.701Z,9.90
2022-09-29T14:31:52.031Z,10.32
2022-09-29T14:33:02.554Z,10.13
2022-09-29T14:34:05.076Z,10.18
2022-09-29T14:35:15.834Z,9.98
2022-09-29T14:36:20.919Z,9.10
2022-09-29T14:37:30.464Z,9.45
2022-09-29T14:38:44.110Z,10.32
2022-09-29T14:40:09.784Z,10.52
2022-09-29T14:41:38.478Z,9.70
2022-09-29T14:42:40.677Z,10.32
2022-09-29T14:43:44.746Z,11.05
2022-09-29T14:45:09.525Z,9.23
2022-09-29T14:46:48.700Z,9.95
2022-09-29T14:48:36.260Z,9.30
2022-09-29T14:50:35.580Z,12.68
2022-09-29T14:52:21.512Z,28.75
2022-09-29T14:53:40.277Z,19.42
2022-09-29T14:55:00.795Z,15.50
2022-09-29T14:56:46.044Z,12.88
2022-09-29T14:58:29.115Z,21.05
2022-09-29T14:59:53.864Z,14.35
2022-09-29T15:01:35.667Z,13.65
2022-09-29T15:02:43.281Z,11.18
2022-09-29T15:03:53.410Z,12.15
2022-09-29T15:04:56.694Z,21.75
2022-09-29T15:06:17.141Z,35.83
2022-09-29T15:07:32.203Z,28.25
2022-09-29T15:08:40.386Z,33.42
2022-09-29T15:10:08.557Z,29.65
2022-09-29T15:11:27.912Z,42.92
2022-09-29T15:12:43.570Z,36.65
2022-09-29T15:13:48.827Z,41.03
2022-09-29T15:14:51.377Z,45.42
2022-09-29T15:16:11.713Z,46.85
2022-09-29T15:17:53.370Z,34.97
2022-09-29T15:19:03.076Z,22.70
2022-09-29T15:20:10.170Z,20.92
2022-09-29T15:21:20.418Z,18.90
2022-09-29T15:22:48.453Z,15.02
2022-09-29T15:24:20.174Z,14.85
2022-09-29T15:25:45.588Z,12.73
2022-09-29T15:26:49.703Z,14.40
2022-09-29T15:27:57.674Z,13.43
2022-09-29T15:29:05.200Z,14.00
2022-09-29T15:31:41.297Z,11.80
2022-09-29T15:32:50.429Z,11.95
2022-09-29T15:34:00.183Z,13.18
2022-09-29T15:35:16.852Z,13.80
2022-09-29T15:36:36.267Z,12.65
2022-09-29T15:38:10.459Z,13.98
2022-09-29T15:39:41.198Z,15.18
2022-09-29T15:40:57.763Z,18.60
2022-09-29T15:43:49.667Z,21.42
2022-09-29T15:44:58.816Z,20.73
2022-09-29T15:46:13.498Z,18.85
2022-09-29T15:47:39.278Z,16.55
2022-09-29T15:48:42.273Z,16.38
2022-09-29T15:49:56.168Z,16.27
2022-09-29T15:51:05.298Z,17.52
2022-09-29T15:52:17.894Z,17.27
2022-09-29T15:53:46.381Z,17.30
2022-09-29T15:55:00.669Z,16.95
2022-09-29T15:56:38.684Z,18.77
2022-09-29T15:57:51.290Z,16.55
2022-09-29T15:58:54.621Z,18.42
2022-09-29T16:00:01.216Z,22.33
2022-09-29T16:01:12.454Z,26.38
2022-09-29T16:02:47.567Z,24.15
2022-09-29T16:04:00.294Z,21.27
2022-09-29T16:05:27.160Z,22.95
2022-09-29T16:06:35.437Z,22.33
2022-09-29T16:07:52.383Z,20.95
2022-09-29T16:09:01.638Z,21.45